createdAt,value
2022-10-01T00:01:37.289Z,2.25
2022-10-01T00:05:44.676Z,2.50
2022-10-01T00:09:51.332Z,2.30
2022-10-01T00:13:58.007Z,3.03
2022-10-01T00:18:04.948Z,2.92
2022-10-01T00:22:11.631Z,3.03
2022-10-01T00:26:23.466Z,2.58
2022-10-01T00:30:30.336Z,2.30
2022-10-01T00:34:37.023Z,3.63
2022-10-01T00:38:43.736Z,3.33
2022-10-01T00:42:51.497Z,2.90
2022-10-01T00:47:21.551Z,3.08
2022-10-01T00:51:38.459Z,3.17
2022-10-01T00:55:51.821Z,2.30
2022-10-01T01:00:02.611Z,2.60
2022-10-01T01:04:16.631Z,3.10
2022-10-01T01:08:23.786Z,2.75
2022-10-01T01:13:07.904Z,2.83
2022-10-01T01:17:35.260Z,2.80
2022-10-01T01:21:45.485Z,2.65
2022-10-01T01:26:13.331Z,3.13
2022-10-01T01:30:20.568Z,2.72
2022-10-01T01:34:31.561Z,2.97
2022-10-01T01:38:44.869Z,2.85
2022-10-01T01:42:54.650Z,3.45
2022-10-01T01:47:04.030Z,2.88
2022-10-01T01:51:36.138Z,2.30
2022-10-01T01:55:45.790Z,3.30
2022-10-01T01:59:54.492Z,3.00
2022-10-01T02:04:05.351Z,2.95
2022-10-01T02:08:36.900Z,2.60
2022-10-01T02:13:03.429Z,2.60
2022-10-01T02:17:42.814Z,2.80
2022-10-01T02:22:03.452Z,2.50
2022-10-01T02:26:19.206Z,2.30
2022-10-01T02:30:26.654Z,2.63
2022-10-01T02:34:33.857Z,1.52
2022-10-01T02:38:43.674Z,1.65
2022-10-01T02:42:54.900Z,1.63
2022-10-01T02:47:18.685Z,1.88
2022-10-01T02:51:44.674Z,1.10
2022-10-01T02:55:53.901Z,0.98
2022-10-01T03:00:04.531Z,0.68
2022-10-01T03:04:11.241Z,0.60
2022-10-01T03:08:18.029Z,0.70
2022-10-01T03:12:25.118Z,0.50
2022-10-01T03:16:31.808Z,0.50
2022-10-01T03:20:38.462Z,0.40
2022-10-01T03:24:45.127Z,0.38
2022-10-01T03:28:51.789Z,0.57
2022-10-01T03:32:58.416Z,0.20
2022-10-01T03:37:05.702Z,0.60
2022-10-01T03:41:12.365Z,0.30
2022-10-01T03:45:19.086Z,0.20
2022-10-01T03:49:25.788Z,0.20
2022-10-01T03:53:32.586Z,0.20
2022-10-01T03:57:39.460Z,0.20
2022-10-01T04:01:46.208Z,0.95
2022-10-01T04:05:52.902Z,0.15
2022-10-01T04:09:59.557Z,0.20
2022-10-01T04:14:06.227Z,0.10
2022-10-01T04:18:12.870Z,0.10
2022-10-01T04:22:19.535Z,0.20
2022-10-01T04:26:26.215Z,0.20
2022-10-01T04:30:38.302Z,0.20
2022-10-01T04:34:53.977Z,0.30
2022-10-01T04:39:02.427Z,0.22
2022-10-01T04:43:11.112Z,0.20
2022-10-01T04:47:17.818Z,0.30
2022-10-01T04:51:24.601Z,0.30
2022-10-01T04:55:31.395Z,0.25
2022-10-01T04:59:38.096Z,0.30
2022-10-01T05:03:44.744Z,0.30
2022-10-01T05:07:51.442Z,0.30
2022-10-01T05:11:58.097Z,0.40
2022-10-01T05:16:04.946Z,0.35
2022-10-01T05:20:20.682Z,0.47
2022-10-01T05:24:27.386Z,0.30
2022-10-01T05:28:35.888Z,0.47
2022-10-01T05:32:42.762Z,0.40
2022-10-01T05:36:49.426Z,0.50
2022-10-01T05:40:56.104Z,0.40
2022-10-01T05:45:02.835Z,0.50
2022-10-01T05:49:10.570Z,0.47
2022-10-01T05:53:17.224Z,0.50
2022-10-01T05:57:23.888Z,1.05
2022-10-01T06:01:32.365Z,0.45
2022-10-01T06:05:39.324Z,0.50
2022-10-01T06:09:46.009Z,0.60
2022-10-01T06:13:53.352Z,0.70
2022-10-01T06:18:10.809Z,0.60
2022-10-01T06:22:17.904Z,0.70
2022-10-01T06:26:24.827Z,0.82
2022-10-01T06:30:33.626Z,1.02
2022-10-01T06:34:41.009Z,1.10
2022-10-01T06:38:50.810Z,0.80
2022-10-01T06:42:58.468Z,1.40
2022-10-01T06:47:05.295Z,1.20
2022-10-01T06:51:11.988Z,1.20
2022-10-01T06:55:24.384Z,0.98
2022-10-01T07:03:37.685Z,2.28
2022-10-01T07:07:48.798Z,1.45
2022-10-01T07:11:56.659Z,1.98
2022-10-01T07:16:04.833Z,1.90
2022-10-01T07:20:12.746Z,1.65
2022-10-01T07:24:19.438Z,1.70
2022-10-01T07:28:27.385Z,2.45
2022-10-01T07:32:35.366Z,1.63
2022-10-01T07:36:45.159Z,1.95
2022-10-01T07:40:53.150Z,2.00
2022-10-01T07:44:59.794Z,2.08
2022-10-01T07:49:06.833Z,2.08
2022-10-01T07:53:14.153Z,1.48
2022-10-01T07:57:20.820Z,2.08
2022-10-01T08:01:28.083Z,2.15
2022-10-01T08:05:35.872Z,3.13
2022-10-01T08:09:42.532Z,3.17
2022-10-01T08:13:49.182Z,2.72
2022-10-01T08:17:55.950Z,2.33
2022-10-01T08:22:02.989Z,2.50
2022-10-01T08:26:11.363Z,2.75
2022-10-01T08:30:18.065Z,2.22
2022-10-01T08:34:24.860Z,2.28
2022-10-01T08:38:31.527Z,1.75
2022-10-01T08:42:50.534Z,1.50
2022-10-01T08:47:11.741Z,1.45
2022-10-01T08:51:46.489Z,1.85
2022-10-01T08:55:55.592Z,1.33
2022-10-01T09:00:11.680Z,1.20
2022-10-01T09:04:18.468Z,1.02
2022-10-01T09:08:46.102Z,0.95
2022-10-01T09:13:07.950Z,0.98
2022-10-01T09:17:30.386Z,0.70
2022-10-01T09:21:59.984Z,0.85
2022-10-01T09:26:12.105Z,0.90
2022-10-01T09:30:21.861Z,1.23
2022-10-01T09:34:38.143Z,1.77
2022-10-01T09:39:13.705Z,1.30
2022-10-01T09:43:27.452Z,0.80
2022-10-01T09:47:34.509Z,0.60
2022-10-01T09:51:46.347Z,0.30
2022-10-01T09:55:58.460Z,0.40
2022-10-01T10:04:20.981Z,0.40
2022-10-01T10:08:40.442Z,0.40
2022-10-01T10:12:54.108Z,0.43
2022-10-01T10:17:17.464Z,0.80
2022-10-01T10:21:28.634Z,0.80
2022-10-01T10:25:35.590Z,0.28
2022-10-01T10:29:42.263Z,0.40
2022-10-01T10:34:09.484Z,0.30
2022-10-01T10:38:18.859Z,0.50
2022-10-01T10:42:25.936Z,0.30
2022-10-01T10:46:36.051Z,0.32
2022-10-01T10:50:45.016Z,0.50
2022-10-01T10:54:53.793Z,0.52
2022-10-01T10:59:08.340Z,0.60
2022-10-01T11:03:17.050Z,0.40
2022-10-01T11:07:26.188Z,0.60
2022-10-01T11:11:57.998Z,0.80
2022-10-01T11:16:38.157Z,1.13
2022-10-01T11:21:22.498Z,0.68
2022-10-01T11:25:43.802Z,0.50
2022-10-01T11:30:01.430Z,0.70
2022-10-01T11:34:27.255Z,0.40
2022-10-01T11:38:47.053Z,0.70
2022-10-01T11:43:00.193Z,0.30
2022-10-01T11:47:15.476Z,0.70
2022-10-01T11:51:28.091Z,0.47
2022-10-01T11:56:14.817Z,0.50
2022-10-01T12:00:27.157Z,0.70
2022-10-01T12:04:49.639Z,0.30
2022-10-01T12:09:08.084Z,0.50
2022-10-01T12:13:36.064Z,0.80
2022-10-01T12:18:06.423Z,0.43
2022-10-01T12:22:24.730Z,1.27
2022-10-01T12:26:49.823Z,0.45
2022-10-01T12:31:08.256Z,0.38
2022-10-01T12:35:42.593Z,0.25
2022-10-01T12:40:06.274Z,0.90
2022-10-01T12:44:37.078Z,0.80
2022-10-01T12:49:00.783Z,0.85
2022-10-01T12:53:29.994Z,0.68
2022-10-01T12:57:49.074Z,0.30
2022-10-01T13:02:17.186Z,0.57
2022-10-01T13:06:35.877Z,0.77
2022-10-01T13:11:02.298Z,0.40
2022-10-01T13:15:20.544Z,0.35
2022-10-01T13:19:37.520Z,0.45
2022-10-01T13:23:57.462Z,0.30
2022-10-01T13:28:11.527Z,0.68
2022-10-01T13:32:27.414Z,0.40
2022-10-01T13:36:36.354Z,0.68
2022-10-01T13:40:44.166Z,1.05
2022-10-01T13:45:21.604Z,0.43
2022-10-01T13:49:30.736Z,0.60
2022-10-01T13:53:43.605Z,0.70
2022-10-01T13:57:50.315Z,1.17
2022-10-01T14:01:57.320Z,0.70
2022-10-01T14:06:07.767Z,0.60
2022-10-01T14:10:16.043Z,0.43
2022-10-01T14:14:51.260Z,0.43
2022-10-01T14:18:57.965Z,0.88
2022-10-01T14:23:09.008Z,1.48
2022-10-01T14:27:33.022Z,1.30
2022-10-01T14:32:06.358Z,0.52
2022-10-01T14:36:23.826Z,0.40
2022-10-01T14:40:42.117Z,0.90
2022-10-01T14:44:48.836Z,0.35
2022-10-01T14:48:59.941Z,0.38
2022-10-01T14:53:07.805Z,0.73
2022-10-01T14:57:35.066Z,0.52
2022-10-01T15:01:41.758Z,0.40
2022-10-01T15:05:49.756Z,0.65
2022-10-01T15:10:06.434Z,0.43
2022-10-01T15:14:25.514Z,0.75
2022-10-01T15:18:32.455Z,1.55
2022-10-01T15:22:39.838Z,0.52
2022-10-01T15:26:48.382Z,0.98
2022-10-01T15:30:56.888Z,0.70
2022-10-01T15:35:03.830Z,0.52
2022-10-01T15:39:40.674Z,0.50
2022-10-01T15:43:47.849Z,1.30
2022-10-01T15:47:58.083Z,0.82
2022-10-01T15:52:23.457Z,0.60
2022-10-01T15:56:30.366Z,0.80
2022-10-01T16:01:01.632Z,0.40
2022-10-01T16:05:15.060Z,0.80
2022-10-01T16:09:27.719Z,0.80
2022-10-01T16:13:39.081Z,0.70
2022-10-01T16:17:58.153Z,0.77
2022-10-01T16:22:31.720Z,0.63
2022-10-01T16:26:39.874Z,0.75
2022-10-01T16:30:50.554Z,0.88
2022-10-01T16:35:17.581Z,1.05
2022-10-01T16:39:25.210Z,0.55
2022-10-01T16:43:32.153Z,0.88
2022-10-01T16:47:41.720Z,0.90
2022-10-01T16:51:52.877Z,0.68
2022-10-01T16:55:59.548Z,0.52
2022-10-01T17:00:06.795Z,0.50
2022-10-01T17:04:14.094Z,0.70
2022-10-01T17:08:20.806Z,0.47
2022-10-01T17:12:27.509Z,0.40
2022-10-01T17:16:34.855Z,0.47
2022-10-01T17:20:41.618Z,0.30
2022-10-01T17:24:48.712Z,0.40
2022-10-01T17:28:55.412Z,0.65
2022-10-01T17:33:02.177Z,0.63
2022-10-01T17:37:08.862Z,1.35
2022-10-01T17:41:15.595Z,1.52
2022-10-01T17:45:22.262Z,0.60
2022-10-01T17:49:28.920Z,1.10
2022-10-01T17:53:42.231Z,0.57
2022-10-01T17:57:49.824Z,1.08
2022-10-01T18:01:56.727Z,1.50
2022-10-01T18:06:04.481Z,0.50
2022-10-01T18:10:13.117Z,0.60
2022-10-01T18:14:19.870Z,0.70
2022-10-01T18:19:51.356Z,2.63
2022-10-01T18:22:53.443Z,1.27
2022-10-01T18:27:00.307Z,1.15
2022-10-01T18:31:12.950Z,1.13
2022-10-01T18:35:31.219Z,1.10
2022-10-01T18:39:49.259Z,0.95
2022-10-01T18:43:55.954Z,0.35
2022-10-01T18:48:23.795Z,0.80
2022-10-01T18:52:55.710Z,0.82
2022-10-01T18:57:11.405Z,0.88
2022-10-01T19:01:36.776Z,1.50
2022-10-01T19:05:58.771Z,0.60
2022-10-01T19:10:24.393Z,0.40
2022-10-01T19:14:51.171Z,1.23
2022-10-01T19:18:57.834Z,1.05
2022-10-01T19:23:13.741Z,0.70
2022-10-01T19:27:45.012Z,0.63
2022-10-01T19:31:58.872Z,0.60
2022-10-01T19:36:06.858Z,0.52
2022-10-01T19:40:36.035Z,0.60
2022-10-01T19:44:57.519Z,0.40
2022-10-01T19:49:21.029Z,0.60
2022-10-01T19:53:33.339Z,0.90
2022-10-01T20:02:00.212Z,0.50
2022-10-01T20:06:27.286Z,1.23
2022-10-01T20:10:43.742Z,1.15
2022-10-01T20:15:19.888Z,0.63
2022-10-01T20:19:55.777Z,0.65
2022-10-01T20:24:33.027Z,1.02
2022-10-01T20:28:42.462Z,0.60
2022-10-01T20:33:26.638Z,1.23
2022-10-01T20:37:41.894Z,1.35
2022-10-01T20:41:53.945Z,0.73
2022-10-01T20:46:32.231Z,1.15
2022-10-01T20:50:46.314Z,1.02
2022-10-01T20:55:00.195Z,0.50
2022-10-01T20:59:18.053Z,0.60
2022-10-01T21:03:24.965Z,1.27
2022-10-01T21:07:48.766Z,2.08
2022-10-01T21:12:02.013Z,1.58
2022-10-01T21:16:38.387Z,1.30
2022-10-01T21:21:00.541Z,2.05
2022-10-01T21:25:25.571Z,0.90
2022-10-01T21:29:51.098Z,0.60
2022-10-01T21:34:46.422Z,1.42
2022-10-01T21:39:19.414Z,0.93
2022-10-01T21:43:59.985Z,0.80
2022-10-01T21:48:42.049Z,1.17
2022-10-01T21:53:15.648Z,0.95
2022-10-01T21:57:48.422Z,1.42
2022-10-01T22:02:10.143Z,1.02
2022-10-01T22:06:36.113Z,0.85
2022-10-01T22:10:53.062Z,1.55
2022-10-01T22:15:00.736Z,1.00
2022-10-01T22:19:15.531Z,1.33
2022-10-01T22:23:22.387Z,2.33
2022-10-01T22:27:46.253Z,1.27
2022-10-01T22:31:58.990Z,1.38
2022-10-01T22:36:13.652Z,1.08
2022-10-01T22:40:38.394Z,2.45
2022-10-01T22:44:46.349Z,1.17
2022-10-01T22:49:04.203Z,2.00
2022-10-01T22:53:22.601Z,1.70
2022-10-01T22:57:53.775Z,2.33
2022-10-01T23:02:17.283Z,2.38
2022-10-01T23:07:05.116Z,1.77
2022-10-01T23:11:27.636Z,1.00
2022-10-01T23:15:56.893Z,1.70
2022-10-01T23:20:20.351Z,2.22
2022-10-01T23:24:59.127Z,2.03
2022-10-01T23:29:43.385Z,1.75
2022-10-01T23:34:20.470Z,1.38
2022-10-01T23:38:35.920Z,1.60
2022-10-01T23:42:52.699Z,1.52
2022-10-01T23:47:01.879Z,1.70
2022-10-01T23:51:22.956Z,1.27
2022-10-01T23:56:26.274Z,1.42
